createdAt,value
2023-01-25T00:01:06.695Z,94.35
2023-01-25T00:06:10.229Z,93.64
2023-01-25T00:11:13.096Z,95.87
2023-01-25T00:16:17.359Z,95.42
2023-01-25T00:21:22.146Z,95.67
2023-01-25T00:26:25.062Z,96.54
2023-01-25T00:31:41.833Z,97.56
2023-01-25T00:36:46.233Z,96.62
2023-01-25T00:41:49.149Z,96.08
2023-01-25T00:46:53.377Z,96.11
2023-01-25T00:51:56.530Z,96.69
2023-01-25T00:56:59.671Z,96.87
2023-01-25T01:02:04.603Z,95.67
2023-01-25T01:07:07.623Z,95.45
2023-01-25T01:12:10.607Z,95.24
2023-01-25T01:17:14.868Z,95.25
2023-01-25T01:22:17.822Z,94.69
2023-01-25T01:27:20.721Z,94.10
2023-01-25T01:32:25.222Z,94.17
2023-01-25T01:37:28.204Z,94.13
2023-01-25T01:42:31.061Z,93.31
2023-01-25T01:47:45.877Z,92.90
2023-01-25T01:52:51.369Z,93.83
2023-01-25T01:57:59.004Z,93.26
2023-01-25T02:03:03.577Z,94.04
2023-01-25T02:08:08.999Z,93.51
2023-01-25T02:13:12.175Z,93.70
2023-01-25T02:18:17.255Z,93.51
2023-01-25T02:23:26.925Z,92.45
2023-01-25T02:28:36.124Z,92.17
2023-01-25T02:33:40.730Z,92.90
2023-01-25T02:38:47.947Z,94.13
2023-01-25T02:43:53.226Z,93.77
2023-01-25T02:48:56.825Z,93.00
2023-01-25T02:54:00.754Z,91.91
2023-01-25T02:59:05.904Z,92.69
2023-01-25T03:04:10.869Z,92.85
2023-01-25T03:09:14.053Z,92.39
2023-01-25T03:14:23.008Z,91.86
2023-01-25T03:19:26.285Z,93.07
2023-01-25T03:24:29.570Z,92.87
2023-01-25T03:29:34.521Z,92.25
2023-01-25T03:34:39.609Z,91.87
2023-01-25T03:39:43.156Z,91.01
2023-01-25T03:44:47.660Z,92.01
2023-01-25T03:49:50.502Z,93.04
2023-01-25T03:54:55.144Z,91.87
2023-01-25T04:00:00.772Z,91.88
2023-01-25T04:05:03.892Z,91.65
2023-01-25T04:10:08.860Z,92.53
2023-01-25T04:15:16.445Z,92.10
2023-01-25T04:20:19.740Z,91.83
2023-01-25T04:25:23.156Z,92.37
2023-01-25T04:30:31.102Z,91.89
2023-01-25T04:35:34.245Z,91.48
2023-01-25T04:40:38.863Z,91.94
2023-01-25T04:45:43.213Z,92.01
2023-01-25T04:50:53.228Z,91.81
2023-01-25T04:55:58.309Z,93.54
2023-01-25T05:01:03.807Z,92.56
2023-01-25T05:06:08.256Z,92.08
2023-01-25T05:11:11.648Z,91.61
2023-01-25T05:16:30.630Z,91.19
2023-01-25T05:21:52.381Z,92.36
2023-01-25T05:27:01.624Z,92.32
2023-01-25T05:32:17.093Z,92.60
2023-01-25T05:37:21.994Z,92.90
2023-01-25T05:42:32.523Z,92.36
2023-01-25T05:47:37.600Z,94.34
2023-01-25T05:52:41.027Z,92.88
2023-01-25T05:57:45.285Z,92.90
2023-01-25T06:02:49.759Z,92.62
2023-01-25T06:07:58.709Z,92.42
2023-01-25T06:13:06.217Z,92.43
2023-01-25T06:18:10.625Z,91.64
2023-01-25T06:23:33.524Z,91.83
2023-01-25T06:28:38.123Z,91.42
2023-01-25T06:33:43.736Z,92.32
2023-01-25T06:38:49.604Z,92.92
2023-01-25T06:43:52.909Z,93.63
2023-01-25T06:48:57.312Z,93.20
2023-01-25T06:54:03.579Z,92.64
2023-01-25T06:59:06.571Z,91.95
2023-01-25T07:04:13.013Z,92.34
2023-01-25T07:09:16.350Z,92.57
2023-01-25T07:14:19.244Z,92.63
2023-01-25T07:19:23.695Z,93.66
2023-01-25T07:24:29.128Z,92.73
2023-01-25T07:29:32.084Z,91.66
2023-01-25T07:34:36.355Z,91.83
2023-01-25T07:39:40.802Z,90.86
2023-01-25T07:44:43.765Z,91.02
2023-01-25T07:49:50.363Z,90.10
2023-01-25T07:54:53.253Z,91.13
2023-01-25T07:59:56.391Z,91.44
2023-01-25T08:05:00.773Z,91.41
2023-01-25T08:10:03.659Z,90.58
2023-01-25T08:15:08.502Z,91.09
2023-01-25T08:20:13.989Z,92.34
2023-01-25T08:25:16.921Z,91.31
2023-01-25T08:30:20.185Z,90.79
2023-01-25T08:35:24.450Z,90.90
2023-01-25T08:40:27.409Z,92.63
2023-01-25T08:45:34.473Z,94.87
2023-01-25T08:50:38.757Z,93.24
2023-01-25T08:55:43.121Z,91.73
2023-01-25T09:00:46.230Z,91.68
2023-01-25T09:05:50.499Z,89.87
2023-01-25T09:10:53.431Z,89.21
2023-01-25T09:16:00.851Z,89.72
2023-01-25T09:21:08.898Z,89.16
2023-01-25T09:26:15.381Z,87.35
2023-01-25T09:31:22.898Z,87.25
2023-01-25T09:36:47.510Z,87.14
2023-01-25T09:42:20.477Z,86.63
2023-01-25T09:47:30.593Z,86.61
2023-01-25T09:53:06.919Z,85.30
2023-01-25T09:58:15.692Z,84.06
2023-01-25T10:03:24.971Z,84.39
2023-01-25T10:08:33.764Z,83.16
2023-01-25T10:13:36.700Z,83.52
2023-01-25T10:18:45.808Z,82.83
2023-01-25T10:24:13.962Z,83.09
2023-01-25T10:29:20.891Z,83.13
2023-01-25T10:34:27.486Z,83.03
2023-01-25T10:39:35.278Z,82.54
2023-01-25T10:44:38.344Z,81.58
2023-01-25T10:49:43.214Z,81.05
2023-01-25T10:54:50.289Z,83.96
2023-01-25T10:59:54.097Z,86.11
2023-01-25T11:04:56.985Z,85.37
2023-01-25T11:10:01.410Z,86.79
2023-01-25T11:15:25.791Z,87.38
2023-01-25T11:20:28.776Z,86.78
2023-01-25T11:25:34.795Z,85.99
2023-01-25T11:30:37.882Z,85.62
2023-01-25T11:36:00.051Z,84.28
2023-01-25T11:41:13.796Z,83.32
2023-01-25T11:46:32.105Z,85.39
2023-01-25T11:51:40.610Z,85.25
2023-01-25T11:56:55.401Z,85.07
2023-01-25T12:02:13.435Z,84.45
2023-01-25T12:07:25.425Z,84.29
2023-01-25T12:12:41.960Z,84.63
2023-01-25T12:18:01.018Z,83.71
2023-01-25T12:23:31.541Z,83.33
2023-01-25T12:28:42.121Z,83.15
2023-01-25T12:33:50.801Z,83.94
2023-01-25T12:38:59.773Z,83.99
2023-01-25T12:44:13.961Z,84.95
2023-01-25T12:49:24.848Z,84.41
2023-01-25T12:54:34.611Z,85.02
2023-01-25T12:59:46.841Z,83.68
2023-01-25T13:05:01.033Z,82.99
2023-01-25T13:10:11.587Z,82.65
2023-01-25T13:15:37.582Z,84.13
2023-01-25T13:20:50.434Z,84.25
2023-01-25T13:25:53.369Z,87.13
2023-01-25T13:30:57.592Z,88.05
2023-01-25T13:36:39.853Z,88.84
2023-01-25T13:41:59.773Z,87.44
2023-01-25T13:47:06.895Z,86.06
2023-01-25T13:52:16.865Z,84.29
2023-01-25T13:57:22.542Z,85.32
2023-01-25T14:02:28.302Z,84.58
2023-01-25T14:07:34.634Z,86.62
2023-01-25T14:12:40.249Z,86.33
2023-01-25T14:17:44.745Z,86.81
2023-01-25T14:22:52.233Z,86.74
2023-01-25T14:27:57.095Z,86.64
2023-01-25T14:33:04.016Z,86.27
2023-01-25T14:38:24.978Z,86.08
2023-01-25T14:43:29.030Z,86.37
2023-01-25T14:48:38.122Z,87.31
2023-01-25T14:53:43.876Z,87.17
2023-01-25T14:58:50.808Z,87.96
2023-01-25T15:04:03.346Z,86.60
2023-01-25T15:09:06.343Z,86.67
2023-01-25T15:14:18.202Z,85.82
2023-01-25T15:19:28.885Z,86.57
2023-01-25T15:24:31.770Z,85.67
2023-01-25T15:29:34.657Z,84.82
2023-01-25T15:34:38.952Z,86.15
2023-01-25T15:39:41.833Z,86.64
2023-01-25T15:44:44.773Z,86.79
2023-01-25T15:49:49.589Z,87.11
2023-01-25T15:55:01.480Z,85.98
2023-01-25T16:00:06.739Z,86.67
2023-01-25T16:05:11.366Z,87.09
2023-01-25T16:10:24.218Z,86.48
2023-01-25T16:15:27.157Z,86.85
2023-01-25T16:20:31.692Z,86.35
2023-01-25T16:25:34.568Z,87.44
2023-01-25T16:30:37.524Z,87.41
2023-01-25T16:35:41.800Z,87.20
2023-01-25T16:40:44.813Z,88.48
2023-01-25T16:45:47.729Z,88.40
2023-01-25T16:50:52.821Z,87.89
2023-01-25T16:55:55.712Z,87.87
2023-01-25T17:00:58.596Z,86.77
2023-01-25T17:06:02.853Z,88.53
2023-01-25T17:11:06.412Z,88.44
2023-01-25T17:16:09.642Z,88.48
2023-01-25T17:21:16.887Z,87.63
2023-01-25T17:26:21.946Z,87.87
2023-01-25T17:31:27.654Z,87.12
2023-01-25T17:36:32.078Z,87.90
2023-01-25T17:41:35.155Z,88.99
2023-01-25T17:46:38.370Z,90.99
2023-01-25T17:51:42.610Z,89.49
2023-01-25T17:56:45.513Z,88.90
2023-01-25T18:01:48.562Z,88.51
2023-01-25T18:06:53.016Z,87.79
2023-01-25T18:11:55.861Z,88.59
2023-01-25T18:16:58.983Z,88.56
2023-01-25T18:22:03.309Z,89.27
2023-01-25T18:27:08.244Z,88.59
2023-01-25T18:32:11.149Z,88.07
2023-01-25T18:37:29.287Z,88.49
2023-01-25T18:42:32.223Z,88.17
2023-01-25T18:47:35.112Z,88.67
2023-01-25T18:52:39.430Z,88.12
2023-01-25T18:57:42.343Z,88.41
2023-01-25T19:02:45.315Z,88.56
2023-01-25T19:07:49.608Z,88.97
2023-01-25T19:12:52.530Z,88.87
2023-01-25T19:17:55.408Z,88.97
2023-01-25T19:22:59.641Z,88.59
2023-01-25T19:28:02.987Z,88.84
2023-01-25T19:33:05.891Z,88.39
2023-01-25T19:38:10.286Z,89.13
2023-01-25T19:43:13.223Z,88.89
2023-01-25T19:48:16.141Z,87.91
2023-01-25T19:53:20.390Z,89.86
2023-01-25T19:58:27.314Z,89.16
2023-01-25T20:03:30.910Z,89.19
2023-01-25T20:08:36.943Z,90.77
2023-01-25T20:13:39.997Z,92.21
2023-01-25T20:18:42.934Z,90.06
2023-01-25T20:23:49.197Z,89.66
2023-01-25T20:28:53.523Z,89.75
2023-01-25T20:33:58.986Z,89.59
2023-01-25T20:39:03.810Z,89.94
2023-01-25T20:44:08.635Z,89.62
2023-01-25T20:49:15.462Z,89.99
2023-01-25T20:54:21.264Z,89.60
2023-01-25T20:59:24.154Z,90.13
2023-01-25T21:04:27.050Z,90.64
2023-01-25T21:09:31.308Z,90.26
2023-01-25T21:14:34.251Z,89.83
2023-01-25T21:19:37.560Z,88.35
2023-01-25T21:24:41.842Z,89.93
2023-01-25T21:29:46.996Z,89.57
2023-01-25T21:34:50.041Z,89.07
2023-01-25T21:39:54.341Z,90.03
2023-01-25T21:45:14.568Z,88.49
2023-01-25T21:50:35.565Z,89.57
2023-01-25T21:55:39.885Z,89.91
2023-01-25T22:00:42.796Z,88.91
2023-01-25T22:05:45.673Z,90.11
2023-01-25T22:10:50.232Z,89.81
2023-01-25T22:15:53.190Z,89.51
2023-01-25T22:20:59.621Z,90.06
2023-01-25T22:26:08.807Z,90.11
2023-01-25T22:31:11.787Z,88.55
2023-01-25T22:36:17.051Z,88.98
2023-01-25T22:41:22.671Z,88.96
2023-01-25T22:46:28.006Z,88.63
2023-01-25T22:51:31.722Z,88.81
2023-01-25T22:56:36.015Z,88.82
2023-01-25T23:01:39.054Z,89.96
2023-01-25T23:06:41.946Z,89.30
2023-01-25T23:11:46.206Z,90.25
2023-01-25T23:16:49.243Z,89.70
2023-01-25T23:21:52.162Z,89.73
2023-01-25T23:26:56.433Z,88.81
2023-01-25T23:32:00.133Z,89.29
2023-01-25T23:37:03.097Z,89.34
2023-01-25T23:42:07.475Z,87.79
2023-01-25T23:47:10.401Z,88.61
2023-01-25T23:52:13.389Z,87.68
2023-01-25T23:57:17.649Z,88.49
